Central City, Illinois
Current Conditions -  °F | °C
As of 7:35 AM on Saturday 25 Oct 2014 (Local Time) from KENL Reporting Station
Haze Haze  
Wind Chill: 56°   Ceiling: Unl
Heat Index: 56°   Visibility: 5mi
Dew Point: 53°   Wind: 3mph
Humidity: 91%   Direction: 250°WSW
Pressure: 30.01"   Gusts: NA
Location:  38.5134°N, 89.1673°W
Report Text: KENL 251235Z AUTO 25003KT 5SM BR CLR 13/12 A3001 RMK AO2 T01310116
Loading
Personal Weather Stations






























Interactive Weather Map
Tropical Storm Tracking
New forecast layout! Learn more

10-Day Weather Forecast

Advertisements
Track Severe Weather on mobile